Sideropolis, Brazil
Current Conditions -  °F | °C
As of 11:00 AM on Thursday 23 Oct 2014 (Local Time) from SBCM Reporting Station
Clear Clear  
Wind Chill: 75°   Ceiling: Unl
Heat Index: 75°   Visibility: 6mi
Dew Point: 54°   Wind: 8mph
Humidity: 47%   Direction: 30°NNE
Pressure: 30.09"   Gusts: NA
Location:  28.6°S, 49.42°W
Report Text: SBCM 231300Z 03007KT CAVOK 24/12 Q1019
Loading
Personal Weather Stations






























Interactive Weather Map
Tropical Storm Tracking
New forecast layout! Learn more

10-Day Weather Forecast

Advertisements
Track Severe Weather on mobile